createdAt,value
2019-03-05T00:00:38.135Z,2.98
2019-03-05T00:03:07.961Z,4.83
2019-03-05T00:05:37.668Z,2.37
2019-03-05T00:08:07.425Z,2.33
2019-03-05T00:10:37.201Z,5.85
2019-03-05T00:13:06.894Z,3.58
2019-03-05T00:15:36.596Z,3.70
2019-03-05T00:18:06.418Z,5.65
2019-03-05T00:20:36.133Z,3.83
2019-03-05T00:23:08.198Z,2.98
2019-03-05T00:25:38.958Z,2.87
2019-03-05T00:28:22.170Z,3.62
2019-03-05T00:31:05.465Z,3.08
2019-03-05T00:33:51.451Z,5.50
2019-03-05T00:36:44.360Z,3.52
2019-03-05T00:39:24.278Z,4.90
2019-03-05T00:42:29.987Z,4.47
2019-03-05T00:45:15.999Z,4.67
2019-03-05T00:48:14.140Z,3.30
2019-03-05T00:51:08.620Z,3.22
2019-03-05T00:54:10.086Z,4.33
2019-03-05T00:57:32.715Z,5.58
2019-03-05T01:00:46.920Z,8.63
2019-03-05T01:04:11.315Z,9.15
2019-03-05T01:06:41.008Z,7.70
2019-03-05T01:09:17.295Z,7.60
2019-03-05T01:11:47.897Z,5.90
2019-03-05T01:14:17.913Z,4.00
2019-03-05T01:16:47.533Z,3.85
2019-03-05T01:19:17.238Z,3.90
2019-03-05T01:21:46.922Z,4.62
2019-03-05T01:24:16.903Z,3.52
2019-03-05T01:26:46.525Z,4.25
2019-03-05T01:29:16.236Z,2.50
2019-03-05T01:31:47.566Z,4.67
2019-03-05T01:34:24.639Z,4.30
2019-03-05T01:36:58.633Z,3.65
2019-03-05T01:39:28.040Z,2.33
2019-03-05T01:41:57.664Z,1.77
2019-03-05T01:44:27.369Z,2.05
2019-03-05T01:46:56.982Z,2.95
2019-03-05T01:49:26.618Z,2.27
2019-03-05T01:51:56.232Z,2.12
2019-03-05T01:54:25.872Z,1.42
2019-03-05T01:56:55.490Z,1.77
2019-03-05T01:59:25.133Z,2.85
2019-03-05T02:01:54.813Z,2.27
2019-03-05T02:04:24.523Z,1.40
2019-03-05T04:38:56.708Z,1.80
2019-03-05T04:41:26.324Z,4.97
2019-03-05T04:43:55.961Z,3.47
2019-03-05T04:46:33.337Z,3.00
2019-03-05T04:49:21.311Z,4.50
2019-03-05T04:51:55.291Z,3.20
2019-03-05T04:54:25.004Z,4.33
2019-03-05T04:56:54.682Z,4.15
2019-03-05T04:59:24.317Z,3.17
2019-03-05T05:01:53.937Z,5.83
2019-03-05T05:04:25.210Z,4.75
2019-03-05T05:06:54.810Z,6.35
2019-03-05T05:09:24.444Z,3.87
2019-03-05T05:11:54.060Z,2.90
2019-03-05T05:14:23.705Z,4.45
2019-03-05T05:16:53.314Z,2.83
2019-03-05T05:19:22.952Z,6.85
2019-03-05T05:21:52.570Z,3.98
2019-03-05T05:24:22.211Z,2.80
2019-03-05T05:26:51.819Z,6.78
2019-03-05T05:29:21.463Z,4.03
2019-03-05T05:31:51.069Z,4.92
2019-03-05T05:34:20.710Z,3.85
2019-03-05T05:36:50.319Z,1.37
2019-03-05T05:40:16.487Z,4.50
2019-03-05T05:42:46.097Z,4.87
2019-03-05T05:45:22.175Z,2.45
2019-03-05T05:47:51.792Z,2.10
2019-03-05T05:50:21.424Z,2.87
2019-03-05T05:52:51.035Z,4.00
2019-03-05T05:55:20.682Z,5.15
2019-03-05T05:57:50.292Z,3.50
2019-03-05T06:00:20.274Z,4.20
2019-03-05T06:02:49.891Z,4.40
2019-03-05T06:05:19.536Z,4.22
2019-03-05T06:07:49.146Z,2.95
2019-03-05T06:10:18.927Z,2.33
2019-03-05T06:12:48.613Z,3.40
2019-03-05T06:15:18.398Z,2.10
2019-03-05T06:17:47.999Z,2.33
2019-03-05T06:20:18.446Z,4.58
2019-03-05T06:22:48.123Z,2.15
2019-03-05T06:25:17.902Z,3.37
2019-03-05T06:27:47.514Z,2.90
2019-03-05T06:30:39.211Z,3.65
2019-03-05T06:33:08.827Z,1.62
2019-03-05T06:35:38.463Z,1.60
2019-03-05T06:38:08.072Z,2.67
2019-03-05T06:40:37.716Z,1.95
2019-03-05T06:43:07.399Z,3.35
2019-03-05T06:45:37.049Z,2.72
2019-03-05T06:48:06.657Z,3.25
2019-03-05T06:50:36.290Z,1.95
2019-03-05T06:53:05.916Z,2.80
2019-03-05T06:55:35.549Z,3.60
2019-03-05T06:58:05.167Z,3.40
2019-03-05T07:00:41.771Z,1.98
2019-03-05T07:03:11.797Z,2.52
2019-03-05T07:06:36.525Z,6.03
2019-03-05T07:09:40.764Z,2.40
2019-03-05T07:12:17.641Z,5.23
2019-03-05T07:15:19.096Z,2.20
2019-03-05T07:17:56.072Z,3.77
2019-03-05T07:20:59.181Z,3.52
2019-03-05T07:24:00.753Z,5.30
2019-03-05T07:26:30.527Z,2.12
2019-03-05T07:29:00.149Z,4.50
2019-03-05T07:31:29.815Z,2.05
2019-03-05T07:33:59.429Z,4.53
2019-03-05T07:36:29.099Z,3.00
2019-03-05T07:38:58.689Z,2.67
2019-03-05T07:41:28.316Z,5.70
2019-03-05T07:43:57.933Z,3.27
2019-03-05T07:46:27.568Z,5.70
2019-03-05T07:48:57.182Z,4.85
2019-03-05T07:51:26.797Z,10.98
2019-03-05T07:53:56.446Z,2.80
2019-03-05T07:56:26.058Z,4.58
2019-03-05T07:58:55.696Z,2.80
2019-03-05T08:01:25.400Z,3.77
2019-03-05T08:03:55.025Z,3.98
2019-03-05T08:06:24.646Z,5.12
2019-03-05T08:09:36.446Z,3.83
2019-03-05T08:12:25.528Z,3.12
2019-03-05T08:15:36.340Z,5.78
2019-03-05T08:18:06.116Z,6.12
2019-03-05T08:20:35.867Z,6.97
2019-03-05T08:23:05.579Z,4.95
2019-03-05T08:25:35.199Z,3.92
2019-03-05T08:28:04.913Z,4.58
2019-03-05T08:30:34.659Z,1.77
2019-03-05T08:33:04.366Z,4.40
2019-03-05T08:35:33.984Z,1.32
2019-03-05T08:38:03.618Z,2.37
2019-03-05T08:40:33.300Z,1.10
2019-03-05T08:43:02.956Z,0.50
2019-03-05T08:45:32.575Z,1.80
2019-03-05T08:48:02.201Z,1.67
2019-03-05T08:50:31.811Z,1.55
2019-03-05T08:53:01.446Z,1.40
2019-03-05T08:55:31.054Z,3.42
2019-03-05T08:58:00.699Z,1.98
2019-03-05T09:00:30.387Z,2.47
2019-03-05T09:03:00.031Z,2.00
2019-03-05T09:05:29.712Z,2.92
2019-03-05T09:07:59.411Z,3.02
2019-03-05T09:10:30.017Z,2.87
2019-03-05T09:13:00.291Z,2.65
2019-03-05T09:15:29.906Z,6.15
2019-03-05T09:17:59.686Z,1.72
2019-03-05T09:20:29.434Z,2.65
2019-03-05T09:22:59.080Z,2.50
2019-03-05T09:25:28.769Z,2.02
2019-03-05T09:27:58.411Z,1.22
2019-03-05T09:30:28.161Z,2.33
2019-03-05T09:32:57.807Z,3.25
2019-03-05T09:35:27.420Z,2.25
2019-03-05T09:37:57.068Z,6.10
2019-03-05T09:40:32.543Z,2.67
2019-03-05T09:43:02.252Z,4.83
2019-03-05T09:45:31.939Z,3.75
2019-03-05T09:48:01.710Z,3.20
2019-03-05T09:50:32.302Z,9.55
2019-03-05T09:53:02.622Z,3.58
2019-03-05T09:55:33.875Z,8.15
2019-03-05T09:58:07.971Z,4.53
2019-03-05T10:00:35.409Z,4.92
2019-03-05T10:03:06.146Z,4.42
2019-03-05T10:05:35.831Z,3.70
2019-03-05T10:08:06.160Z,4.55
2019-03-05T10:10:35.934Z,3.08
2019-03-05T10:13:05.854Z,5.45
2019-03-05T10:15:35.701Z,6.70
2019-03-05T10:18:12.827Z,5.20
2019-03-05T10:20:37.520Z,3.65
2019-03-05T10:23:07.273Z,15.20
2019-03-05T10:25:36.981Z,4.70
2019-03-05T10:28:06.738Z,4.72
2019-03-05T10:30:44.492Z,3.30
2019-03-05T10:33:17.057Z,4.50
2019-03-05T10:35:46.758Z,6.15
2019-03-05T10:38:16.577Z,5.10
2019-03-05T10:41:01.984Z,3.12
2019-03-05T10:43:31.941Z,5.62
2019-03-05T10:46:01.650Z,7.00
2019-03-05T10:48:31.273Z,1.87
2019-03-05T10:51:01.146Z,5.15
2019-03-05T10:53:30.911Z,2.87
2019-03-05T10:56:00.553Z,4.20
2019-03-05T10:58:34.143Z,3.55
2019-03-05T11:01:02.044Z,2.35
2019-03-05T11:03:32.174Z,4.72
2019-03-05T11:06:02.122Z,5.62
2019-03-05T11:08:31.740Z,3.08
2019-03-05T11:11:12.634Z,5.67
2019-03-05T11:13:33.757Z,5.33
2019-03-05T11:16:06.108Z,5.42
2019-03-05T11:18:37.123Z,6.67
2019-03-05T11:21:07.779Z,3.42
2019-03-05T11:23:37.528Z,3.17
2019-03-05T11:26:07.172Z,3.87
2019-03-05T11:28:36.781Z,2.62
2019-03-05T11:31:07.944Z,2.45
2019-03-05T11:33:37.547Z,2.45
2019-03-05T11:36:07.254Z,3.15
2019-03-05T11:38:36.932Z,1.80
2019-03-05T11:41:06.637Z,3.55
2019-03-05T11:43:36.318Z,3.35
2019-03-05T11:46:09.674Z,2.50
2019-03-05T11:48:39.295Z,3.70
2019-03-05T11:51:09.009Z,2.85
2019-03-05T11:53:38.622Z,2.35
2019-03-05T11:56:08.399Z,1.27
2019-03-05T11:58:38.015Z,1.95
2019-03-05T12:01:10.905Z,3.37
2019-03-05T12:03:40.790Z,3.27
2019-03-05T12:06:10.426Z,1.55
2019-03-05T12:08:40.047Z,4.65
2019-03-05T12:11:09.830Z,3.00
2019-03-05T12:13:39.587Z,3.42
2019-03-05T12:16:09.927Z,2.52
2019-03-05T12:18:39.557Z,2.55
2019-03-05T12:21:09.254Z,4.42
2019-03-05T12:23:38.934Z,2.08
2019-03-05T12:26:08.733Z,5.70
2019-03-05T12:28:38.419Z,3.60
2019-03-05T12:31:08.125Z,3.65
2019-03-05T12:33:37.752Z,4.70
2019-03-05T12:36:07.610Z,1.62
2019-03-05T12:38:37.234Z,2.47
2019-03-05T12:41:06.881Z,4.75
2019-03-05T12:43:36.506Z,3.87
2019-03-05T12:46:06.215Z,3.12
2019-03-05T12:48:39.855Z,2.15
2019-03-05T12:51:07.777Z,3.98
2019-03-05T12:53:37.398Z,2.15
2019-03-05T12:56:07.104Z,4.20
2019-03-05T12:58:36.714Z,4.10
2019-03-05T13:01:08.215Z,2.70
2019-03-05T13:03:37.831Z,1.85
2019-03-05T13:06:07.545Z,2.17
2019-03-05T13:08:37.182Z,2.55
2019-03-05T13:11:09.427Z,6.37
2019-03-05T13:13:38.147Z,3.80
2019-03-05T13:16:07.919Z,3.50
2019-03-05T13:18:37.530Z,4.72
2019-03-05T13:21:07.648Z,3.25
2019-03-05T13:23:38.330Z,5.83
2019-03-05T13:26:09.227Z,3.47
2019-03-05T13:28:40.601Z,2.62
2019-03-05T13:31:10.470Z,4.12
2019-03-05T13:33:41.999Z,2.92
2019-03-05T13:36:12.616Z,4.12
2019-03-05T13:38:45.219Z,3.80
2019-03-05T13:41:15.549Z,2.10
2019-03-05T13:43:45.971Z,2.60
2019-03-05T13:46:15.582Z,2.55
2019-03-05T13:49:01.032Z,5.65
2019-03-05T13:51:56.133Z,4.80
2019-03-05T13:54:48.417Z,3.25
2019-03-05T13:58:02.758Z,2.60
2019-03-05T14:00:32.447Z,5.25
2019-03-05T14:03:12.631Z,4.83
2019-03-05T14:06:04.525Z,5.80
2019-03-05T14:08:41.674Z,3.67
2019-03-05T14:11:11.358Z,4.25
2019-03-05T14:13:41.010Z,2.10
2019-03-05T14:16:12.496Z,1.67
2019-03-05T14:18:42.154Z,3.00
2019-03-05T14:21:12.025Z,4.72
2019-03-05T14:23:41.842Z,4.05
2019-03-05T14:26:11.624Z,5.35
2019-03-05T14:28:41.313Z,5.37
2019-03-05T14:31:10.993Z,5.70
2019-03-05T14:33:40.678Z,1.92
2019-03-05T14:36:10.418Z,5.80
2019-03-05T14:38:40.104Z,4.35
2019-03-05T14:41:10.319Z,4.55
2019-03-05T14:43:40.037Z,4.60
2019-03-05T14:46:10.101Z,2.17
2019-03-05T14:48:39.855Z,4.85
2019-03-05T14:51:09.537Z,4.67
2019-03-05T14:53:39.252Z,4.60
2019-03-05T14:56:09.088Z,4.08
2019-03-05T14:58:38.745Z,4.78
2019-03-05T15:01:08.791Z,2.67
2019-03-05T15:03:38.494Z,4.42
2019-03-05T15:06:08.257Z,4.75
2019-03-05T15:08:37.967Z,4.55
2019-03-05T15:11:07.749Z,6.25
2019-03-05T15:13:37.415Z,5.72
2019-03-05T15:16:07.077Z,4.33
2019-03-05T15:18:36.733Z,5.85
2019-03-05T15:21:06.478Z,4.90
2019-03-05T15:23:36.142Z,4.45
2019-03-05T15:26:05.793Z,4.33
2019-03-05T15:28:35.507Z,2.67
2019-03-05T15:31:05.572Z,7.17
2019-03-05T15:33:35.256Z,6.08
2019-03-05T15:36:04.900Z,5.72
2019-03-05T15:38:34.634Z,7.90
2019-03-05T15:41:04.320Z,3.12
2019-03-05T15:43:34.046Z,5.60
2019-03-05T15:46:03.802Z,5.33
2019-03-05T15:48:33.423Z,5.37
2019-03-05T15:51:03.065Z,4.40
2019-03-05T15:53:32.753Z,4.65
2019-03-05T15:56:02.390Z,3.72
2019-03-05T15:58:32.011Z,6.15
2019-03-05T16:01:01.650Z,7.58
2019-03-05T16:03:31.407Z,7.55
2019-03-05T16:06:01.184Z,4.30
2019-03-05T16:08:32.530Z,4.83
2019-03-05T16:11:02.166Z,5.30
2019-03-05T16:13:32.645Z,5.47
2019-03-05T16:16:02.500Z,3.67
2019-03-05T16:18:32.192Z,4.83
2019-03-05T16:21:02.535Z,5.75
2019-03-05T16:23:33.252Z,2.67
2019-03-05T16:26:02.952Z,3.75
2019-03-05T16:28:32.564Z,5.53
2019-03-05T16:31:07.772Z,7.40
2019-03-05T16:33:40.320Z,3.75
2019-03-05T16:36:29.133Z,4.15
2019-03-05T16:39:06.202Z,2.75
2019-03-05T16:41:43.195Z,3.50
2019-03-05T16:44:18.289Z,5.85
2019-03-05T16:47:05.712Z,3.10
2019-03-05T16:49:35.101Z,5.35
2019-03-05T16:52:04.642Z,6.33
2019-03-05T16:54:38.901Z,8.38
2019-03-05T16:59:53.352Z,9.00
2019-03-05T17:02:22.870Z,7.70
2019-03-05T17:04:54.951Z,6.45
2019-03-05T17:07:32.435Z,4.33
2019-03-05T17:10:09.399Z,4.30
2019-03-05T17:12:38.019Z,4.28
2019-03-05T17:15:10.277Z,4.37
2019-03-05T17:17:39.929Z,3.72
2019-03-05T17:20:12.257Z,3.40
2019-03-05T17:22:41.899Z,2.37
2019-03-05T17:25:23.065Z,2.05
2019-03-05T17:27:52.703Z,2.22
2019-03-05T17:30:22.781Z,3.22
2019-03-05T17:32:52.427Z,5.50
2019-03-05T17:35:22.112Z,4.60
2019-03-05T17:37:51.748Z,5.83
2019-03-05T17:40:21.366Z,5.78
2019-03-05T17:42:51.005Z,4.65
2019-03-05T17:45:24.302Z,5.22
2019-03-05T17:47:54.428Z,4.67
2019-03-05T17:50:24.035Z,4.08
2019-03-05T17:52:53.679Z,3.87
2019-03-05T17:55:28.147Z,2.37
2019-03-05T17:57:57.858Z,3.12
2019-03-05T18:00:30.442Z,4.60
2019-03-05T18:03:00.148Z,2.35
2019-03-05T18:05:29.914Z,2.45
2019-03-05T18:07:59.622Z,2.92
2019-03-05T18:10:29.304Z,3.52
2019-03-05T18:12:58.942Z,8.38
2019-03-05T18:15:28.919Z,5.08
2019-03-05T18:17:58.654Z,4.90
2019-03-05T18:20:28.342Z,3.30
2019-03-05T18:22:57.981Z,10.88
2019-03-05T18:25:27.588Z,8.23
2019-03-05T18:27:57.235Z,5.65
2019-03-05T18:30:32.414Z,5.78
2019-03-05T18:33:02.056Z,6.25
2019-03-05T18:35:31.735Z,3.98
2019-03-05T18:38:01.631Z,7.28
2019-03-05T18:40:31.381Z,5.67
2019-03-05T18:43:01.096Z,4.53
2019-03-05T18:45:39.383Z,7.15
2019-03-05T18:48:09.155Z,6.83
2019-03-05T18:50:38.838Z,4.95
2019-03-05T18:53:08.478Z,5.40
2019-03-05T18:55:38.091Z,5.62
2019-03-05T18:58:07.731Z,4.70
2019-03-05T19:00:38.278Z,5.37
2019-03-05T19:03:10.532Z,7.28
2019-03-05T19:05:40.488Z,6.17
2019-03-05T19:08:10.199Z,7.62
2019-03-05T19:10:40.055Z,9.98
2019-03-05T19:13:09.922Z,15.00
2019-03-05T19:15:39.536Z,17.57
2019-03-05T19:18:09.250Z,17.62
2019-03-05T19:20:38.936Z,20.82
2019-03-05T19:23:08.655Z,16.32
2019-03-05T19:25:44.262Z,12.28
2019-03-05T19:28:14.144Z,6.97
2019-03-05T19:30:47.632Z,5.22
2019-03-05T19:33:17.270Z,4.00
2019-03-05T19:35:46.952Z,3.45
2019-03-05T19:38:16.590Z,4.78
2019-03-05T19:40:48.427Z,5.33
2019-03-05T19:43:18.121Z,5.65
2019-03-05T19:45:47.802Z,5.72
2019-03-05T19:48:17.489Z,3.42
2019-03-05T19:50:47.308Z,4.25
2019-03-05T19:53:17.016Z,5.40
2019-03-05T19:55:46.706Z,10.05
2019-03-05T19:58:17.124Z,10.55
2019-03-05T20:00:55.977Z,11.38
2019-03-05T20:03:25.615Z,11.75
2019-03-05T20:05:55.226Z,9.60
2019-03-05T20:08:24.875Z,10.05
2019-03-05T20:10:54.485Z,7.62
2019-03-05T20:13:24.134Z,9.25
2019-03-05T20:15:53.747Z,7.58
2019-03-05T20:18:23.359Z,6.35
2019-03-05T20:20:52.997Z,5.75
2019-03-05T20:23:22.785Z,6.03
2019-03-05T20:25:52.498Z,6.67
2019-03-05T20:28:22.114Z,6.50
2019-03-05T20:30:51.895Z,5.12
2019-03-05T20:33:21.518Z,5.10
2019-03-05T20:35:51.603Z,6.33
2019-03-05T20:38:21.297Z,12.73
2019-03-05T20:40:51.014Z,12.60
2019-03-05T20:43:20.703Z,11.83
2019-03-05T20:46:06.655Z,8.43
2019-03-05T20:48:36.278Z,8.00
2019-03-05T20:51:05.990Z,6.92
2019-03-05T20:53:35.610Z,7.40
2019-03-05T20:56:05.326Z,6.55
2019-03-05T20:58:34.928Z,8.60
2019-03-05T21:01:05.912Z,8.30
2019-03-05T21:03:35.762Z,4.97
2019-03-05T21:06:05.612Z,6.03
2019-03-05T21:08:35.301Z,5.12
2019-03-05T21:11:04.948Z,4.90
2019-03-05T21:13:34.636Z,6.55
2019-03-05T21:16:04.706Z,5.08
2019-03-05T21:18:34.377Z,5.42
2019-03-05T21:21:04.544Z,7.17
2019-03-05T21:23:34.225Z,7.00
2019-03-05T21:26:04.015Z,4.75
2019-03-05T21:28:33.694Z,4.50
2019-03-05T21:31:03.339Z,5.10
2019-03-05T21:33:32.960Z,6.53
2019-03-05T21:36:02.590Z,6.67
2019-03-05T21:38:32.204Z,5.22
2019-03-05T21:41:01.840Z,5.20
2019-03-05T21:43:31.743Z,4.25
2019-03-05T21:46:08.393Z,6.35
2019-03-05T21:48:38.002Z,4.83
2019-03-05T21:51:07.644Z,5.22
2019-03-05T21:53:37.333Z,5.15
2019-03-05T21:56:07.043Z,4.72
2019-03-05T21:58:36.654Z,3.42
2019-03-05T22:01:06.354Z,4.10
2019-03-05T22:03:35.974Z,5.05
2019-03-05T22:06:05.966Z,5.65
2019-03-05T22:08:35.578Z,4.55
2019-03-05T22:11:05.284Z,5.47
2019-03-05T22:13:34.901Z,5.47
2019-03-05T22:16:04.788Z,5.10
2019-03-05T22:18:34.401Z,5.00
2019-03-05T22:21:04.173Z,4.25
2019-03-05T22:23:33.843Z,4.60
2019-03-05T22:26:03.583Z,5.37
2019-03-05T22:28:33.189Z,4.75
2019-03-05T22:31:02.939Z,4.87
2019-03-05T22:33:32.583Z,5.47
2019-03-05T22:36:02.222Z,6.37
2019-03-05T22:38:31.842Z,4.83
2019-03-05T22:41:01.762Z,6.70
2019-03-05T22:43:31.374Z,5.62
2019-03-05T22:46:01.016Z,6.95
2019-03-05T22:48:30.625Z,5.80
2019-03-05T22:51:00.267Z,6.37
2019-03-05T22:53:30.063Z,7.67
2019-03-05T22:55:59.697Z,8.63
2019-03-05T22:58:29.318Z,7.70
2019-03-05T23:01:03.508Z,10.13
2019-03-05T23:06:07.223Z,7.53
2019-03-05T23:11:05.990Z,9.23
2019-03-05T23:13:36.610Z,8.33
2019-03-05T23:16:06.683Z,9.30
2019-03-05T23:18:36.451Z,8.33
2019-03-05T23:21:06.282Z,8.83
2019-03-05T23:23:35.988Z,8.98
2019-03-05T23:26:06.110Z,7.53
2019-03-05T23:28:35.824Z,10.80
2019-03-05T23:31:06.379Z,7.47
2019-03-05T23:33:36.024Z,7.87
2019-03-05T23:36:06.240Z,8.15
2019-03-05T23:38:36.229Z,8.98
2019-03-05T23:41:05.980Z,8.15
2019-03-05T23:43:35.683Z,9.23
2019-03-05T23:46:06.012Z,9.95
2019-03-05T23:48:35.652Z,11.75
2019-03-05T23:51:05.267Z,11.50
2019-03-05T23:53:34.909Z,11.25
2019-03-05T23:56:04.593Z,11.12
2019-03-05T23:58:34.233Z,10.05
